首页
METAR-TAF:

METAR-TAF

机场 :

Albertus Airport

Freeport, 伊利诺伊州, 美国

纬度: 42-14-47N, 经度: 089-34-56W, 海拔: 262米

当前天气观测

该预报发布于35分钟前的00:15 UTC
风速5节,风向南转西南
温度 25°C
湿度 74%
气压 1011 hPa
天空无云

METAR: KFEP 170015Z AUTO 20005KT CLR 25/20 A2985 RMK AO2 T02490200

时间: 19:50 (00:50 UTC)


TAF: 丢失

超过4000个机场的气象观测和天气预报(METAR&TAF报告)。

可查询的气象台以黄色和红色小点在地图上表示。

将鼠标移到小点上方,可查看气象台名称。

然后点击查看天气观测和预报。

如需切换地图:点击带黑十字的绿色按钮放大地图;点击带横线的绿色按钮缩小地图;或者点击绿色箭头查看邻近地区的地图。


METAR-TAF: